Flight Track Log - Related Links

Times and Time Zones

All times are in EDT time to prevent confusion due to time zone crossing. See the AVN21 flight status page for this flight to view local times or setup timezone preferences in your user account.

Time Position Orientation Groundspeed Altitude Reporting Facility
EDT Latitude Longitude Course Direction KTS MPH feet Rate Location/Type
Sun 08:18:03 AM -27.3752 153.1339 27° Northeast 177 204 100  Level FlightAware ADS-B (YBBN / BNE)
Sun 08:18:08 AM -27.3591 153.1857 263° West 17,500 1,200 Climbing Aus ATC (Calculated)
Sun 08:18:18 AM -27.3642 153.1401 27° Northeast 189 217 400 -39,840 Descending FlightAware ADS-B (YBBN / BNE)
Sun 08:18:33 AM -27.3530 153.1485 42° Northeast 188 216 900 1,615 Climbing FlightAware ADS-B (YBBN / BNE)
Sun 08:18:44 AM -27.3473 153.1565 58° Northeast 191 220 1,100 889 Climbing FlightAware ADS-B (YENO)
Sun 08:19:00 AM -27.3433 153.1713 85° East 199 229 1,300 882 Climbing FlightAware ADS-B (YENO)
Sun 08:19:02 AM -27.3372 153.2453 262° West 17,500 1,000 Climbing Aus ATC (Calculated)
Sun 08:19:18 AM -27.3439 153.1920 93° East 218 251 1,600 -29,806 Descending FlightAware ADS-B (YBBN / BNE)
Sun 08:19:33 AM -27.3448 153.2085 94° East 227 261 2,100 2,200 Climbing FlightAware ADS-B (YBBN / BNE)
Sun 08:19:48 AM -27.3457 153.2263 93° East 230 265 2,700 2,400 Climbing FlightAware ADS-B (YBBN / BNE)
Sun 08:20:08 AM -27.3469 153.2497 90° East 239 275 3,500 2,057 Climbing FlightAware ADS-B (YBBN / BNE)
Sun 08:20:23 AM -27.3443 153.2703 75° East 259 298 3,900 1,200 Climbing FlightAware ADS-B (YBBN / BNE)
Sun 08:20:38 AM -27.3377 153.2908 66° East 282 325 4,100 800 Climbing FlightAware ADS-B (YBBN / BNE)
Sun 08:20:53 AM -27.3289 153.3118 65° Northeast 300 345 4,300 1,000 Climbing FlightAware ADS-B (YBBN / BNE)
Sun 08:21:08 AM -27.3201 153.3324 64° Northeast 316 364 4,600 1,000 Climbing FlightAware ADS-B (YBBN / BNE)
Sun 08:21:23 AM -27.3102 153.3555 65° Northeast 330 380 4,800 1,200 Climbing FlightAware ADS-B (YBBN / BNE)
Sun 08:21:38 AM -27.3000 153.3798 65° Northeast 341 392 5,200 1,800 Climbing FlightAware ADS-B (YBBN / BNE)
Sun 08:21:53 AM -27.2905 153.4032 66° East 343 395 5,700 2,000 Climbing FlightAware ADS-B (YBBN / BNE)
Sun 08:22:08 AM -27.2808 153.4268 65° Northeast 348 400 6,200 2,000 Climbing FlightAware ADS-B (YBBN / BNE)
Sun 08:22:23 AM -27.2703 153.4524 65° Northeast 352 405 6,700 2,200 Climbing FlightAware ADS-B (YBBN / BNE)
Sun 08:22:38 AM -27.2594 153.4787 65° Northeast 357 411 7,300 2,400 Climbing FlightAware ADS-B (YBBN / BNE)
Sun 08:22:53 AM -27.2492 153.5034 65° Northeast 358 412 7,900 3,257 Climbing FlightAware ADS-B (YBBN / BNE)
Sun 08:23:13 AM -27.2352 153.5367 65° Northeast 347 399 9,200 3,429 Climbing FlightAware ADS-B (YBBN / BNE)
Sun 08:23:28 AM -27.2249 153.5614 65° Northeast 345 397 9,900 2,267 Climbing FlightAware ADS-B (YBBN / BNE)
Sun 08:23:58 AM -27.2054 153.6080 65° Northeast 364 419 10,900 1,800 Climbing FlightAware ADS-B (YBBN / BNE)
Sun 08:24:28 AM -27.1813 153.6632 61° Northeast 384 442 11,700 2,300 Climbing FlightAware ADS-B (YBBN / BNE)
Sun 08:24:58 AM -27.1523 153.7128 57° Northeast 384 442 13,200 3,333 Climbing FlightAware ADS-B (YBBN / BNE)
Sun 08:25:13 AM -27.1400 153.7335 56° Northeast 377 434 14,200 3,067 Climbing FlightAware ADS-B (YENO)
Sun 08:25:43 AM -27.1089 153.7859 56° Northeast 383 441 15,500 2,600 Climbing FlightAware ADS-B (YBBN / BNE)
Sun 08:26:13 AM -27.0791 153.8360 56° Northeast 389 448 16,800 2,500 Climbing FlightAware ADS-B (YBBN / BNE)
Sun 08:26:43 AM -27.0492 153.8862 56° Northeast 400 460 18,000 2,200 Climbing FlightAware ADS-B (YBBN / BNE)
Sun 08:27:13 AM -27.0185 153.9376 56° Northeast 411 473 19,000 1,902 Climbing FlightAware ADS-B (YBBN / BNE)
Sun 08:27:24 AM -27.0055 153.9593 57° Northeast 413 475 19,300 1,867 Climbing FlightAware ADS-B (YENO)
Sun 08:27:58 AM -26.9673 154.0231 56° Northeast 432 497 20,400 2,063 Climbing FlightAware ADS-B (YBBN / BNE)
Sun 08:28:28 AM -26.9335 154.0794 56° Northeast 437 503 21,500 2,129 Climbing FlightAware ADS-B (YBBN / BNE)
Sun 08:29:00 AM -26.9014 154.1329 56° Northeast 440 506 22,600 1,846 Climbing FlightAware ADS-B (YENO)
Sun 08:29:33 AM -26.8592 154.2029 56° Northeast 454 522 23,500 1,412 Climbing FlightAware ADS-B (YBBN / BNE)
Sun 08:30:08 AM -26.8177 154.2719 56° Northeast 473 544 24,200 1,371 Climbing FlightAware ADS-B (YBBN / BNE)
Sun 08:30:43 AM -26.7758 154.3415 56° Northeast 480 552 25,100 1,477 Climbing FlightAware ADS-B (YBBN / BNE)
Sun 08:31:13 AM -26.7381 154.4044 56° Northeast 488 562 25,800 1,100 Climbing FlightAware ADS-B (YBBN / BNE)
Sun 08:31:43 AM -26.7032 154.4631 56° Northeast 504 580 26,200 700 Climbing FlightAware ADS-B (YBBN / BNE)
Sun 08:32:13 AM -26.6587 154.5365 56° Northeast 520 598 26,500 500 Climbing FlightAware ADS-B (YBBN / BNE)
Sun 08:32:43 AM -26.6178 154.6036 56° Northeast 539 620 26,700 500 Climbing FlightAware ADS-B (YBBN / BNE)
Sun 08:33:13 AM -26.5749 154.6739 56° Northeast 551 634 27,000 700 Climbing FlightAware ADS-B (YBBN / BNE)
Sun 08:33:43 AM -26.5315 154.7451 56° Northeast 559 643 27,400 1,200 Climbing FlightAware ADS-B (YBBN / BNE)
Sun 08:34:13 AM -26.4884 154.8164 56° Northeast 560 644 28,200 2,000 Climbing FlightAware ADS-B (YBBN / BNE)
Sun 08:34:43 AM -26.4475 154.8848 56° Northeast 546 628 29,400 2,500 Climbing FlightAware ADS-B (YBBN / BNE)
Sun 08:35:13 AM -26.4033 154.9579 56° Northeast 531 611 30,700 2,000 Climbing FlightAware ADS-B (YBBN / BNE)
Sun 08:35:43 AM -26.3648 155.0205 56° Northeast 531 611 31,400 1,164 Climbing FlightAware ADS-B (YBBN / BNE)
Sun 08:36:20 AM -26.3101 155.1086 56° Northeast 538 619 32,000 1,043 Climbing FlightAware ADS-B (YBBN / BNE)
Sun 08:36:52 AM -26.2664 155.1790 56° Northeast 541 623 32,600 1,161 Climbing FlightAware ADS-B (YBBN / BNE)
Sun 08:37:22 AM -26.2239 155.2478 56° Northeast 540 621 33,200 1,400 Climbing FlightAware ADS-B (YBBN / BNE)
Sun 08:37:52 AM -26.1810 155.3178 56° Northeast 536 617 34,000 1,400 Climbing FlightAware ADS-B (YBBN / BNE)
Sun 08:38:22 AM -26.1381 155.3879 56° Northeast 535 616 34,600 1,108 Climbing FlightAware ADS-B (YBBN / BNE)
Sun 08:38:57 AM -26.0914 155.4637 56° Northeast 535 616 35,200 1,200 Climbing FlightAware ADS-B (YBBN / BNE)
Sun 08:39:32 AM -26.0404 155.5462 56° Northeast 529 609 36,000 1,200 Climbing FlightAware ADS-B (YBBN / BNE)
Sun 08:40:02 AM -26.0001 155.6113 56° Northeast 527 606 36,500 1,000 Climbing FlightAware ADS-B (YBBN / BNE)
Sun 08:40:32 AM -25.9576 155.6797 56° Northeast 526 605 37,000 500 Climbing FlightAware ADS-B (YBBN / BNE)
Sun 08:41:02 AM -25.9171 155.7454 56° Northeast 528 608 37,000  Level FlightAware ADS-B (YBBN / BNE)
Sun 08:41:36 AM -25.8685 155.8238 56° Northeast 530 610 37,000 176 Level FlightAware ADS-B (YBBN / BNE)
Sun 08:42:10 AM -25.8216 155.8984 56° Northeast 521 600 37,200  Climbing Aus ATC (RADAR)
Sun 08:42:21 AM -25.8077 155.9213 55° Northeast 531 611 37,000 -293 Descending FlightAware ADS-B (YBBN / BNE)
Sun 08:42:51 AM -25.7646 155.9904 55° Northeast 531 611 37,000  Level FlightAware ADS-B (YBBN / BNE)
Sun 08:43:22 AM -25.7212 156.0596 55° Northeast 530 610 37,000 174 Level FlightAware ADS-B (YBBN / BNE)
Sun 08:44:00 AM -25.6682 156.1451 55° Northeast 522 601 37,200 154 Climbing Aus ATC (RADAR)
Sun 08:44:40 AM -25.6152 156.2364 57° Northeast 521 600 37,200  Level Aus ATC (RADAR)
Sun 08:45:15 AM -25.5694 156.3164 58° Northeast 519 597 37,200 -141 Level Aus ATC (RADAR)
Sun 08:46:05 AM -25.5042 156.4299 58° Northeast 517 595 37,000 -185 Descending Aus ATC (RADAR)
Sun 08:46:20 AM -25.4847 156.4638 57° Northeast 517 595 37,000  Level Aus ATC (RADAR)
Sun 08:46:50 AM -25.4457 156.5318 58° Northeast 515 593 37,000  Level Aus ATC (RADAR)
Sun 08:47:40 AM -25.3790 156.6422 56° Northeast 513 590 37,000  Level Aus ATC (RADAR)
Sun 08:48:00 AM -25.3530 156.6873 57° Northeast 513 590 37,000  Level Aus ATC (RADAR)
Sun 08:48:35 AM -25.3071 156.7659 57° Northeast 513 590 37,000  Level Aus ATC (RADAR)
Sun 08:49:40 AM -25.2184 156.9092 56° Northeast 514 592 37,000  Level Aus ATC (RADAR)
Sun 08:49:50 AM -25.2046 156.9309 55° Northeast 514 592 37,000  Level Aus ATC (RADAR)
Sun 08:50:25 AM -25.1562 157.0076 55° Northeast 514 592 37,000  Level Aus ATC (RADAR)
Sun 08:51:10 AM -25.0988 157.1101 58° Northeast 515 593 37,000  Level Aus ATC (RADAR)
Sun 08:51:34 AM -25.0652 157.1659 56° Northeast 514 592 37,000  Level Aus ATC (RADAR)
Sun 08:52:05 AM -25.0247 157.2328 56° Northeast 514 592 37,000  Level Aus ATC (RADAR)
Sun 08:52:39 AM -24.9779 157.3094 56° Northeast 514 592 37,000  Level Aus ATC (RADAR)
Sun 08:55:50 AM -24.7287 157.7262 57° Northeast 37,000  Level Aus ATC (Calculated)
Sun 08:57:00 AM -24.6447 157.8659 57° Northeast  Level FlightAware Approximate
Sun 08:58:00 AM -24.5726 157.9855 56° Northeast  Level FlightAware Approximate
Sun 08:59:00 AM -24.5004 158.1049 56° Northeast  Level FlightAware Approximate
Sun 09:00:00 AM -24.4281 158.2242 56° Northeast  Level FlightAware Approximate
Sun 09:01:00 AM -24.3557 158.3434 56° Northeast  Level FlightAware Approximate
Sun 09:02:00 AM -24.2832 158.4625 56° Northeast  Level FlightAware Approximate
Sun 09:03:00 AM -24.2106 158.5814 56° Northeast  Level FlightAware Approximate
Sun 09:04:00 AM -24.1380 158.7001 56° Northeast  Level FlightAware Approximate
Sun 09:05:00 AM -24.0652 158.8188 56° Northeast  Level FlightAware Approximate
Sun 09:06:00 AM -23.9924 158.9373 56° Northeast  Level FlightAware Approximate
Sun 09:07:00 AM -23.9194 159.0556 56° Northeast  Level FlightAware Approximate
Sun 09:08:00 AM -23.8464 159.1738 56° Northeast  Level FlightAware Approximate
Sun 09:09:00 AM -23.5979 159.5686 235° Southwest 37,000  Level Aus ATC (Calculated)
Sun 09:09:00 AM -23.7733 159.2919 56° Northeast  Level FlightAware Approximate
Sun 09:09:59 AM -23.5297 159.6775 56° Northeast 37,000  Level Aus ATC (Calculated)
Sun 09:10:00 AM -23.5243 159.6861 56° Northeast  Level FlightAware Approximate
Sun 09:11:00 AM -23.4549 159.7969 56° Northeast  Level FlightAware Approximate
Sun 09:12:00 AM -23.3811 159.9142 56° Northeast  Level FlightAware Approximate
Sun 09:13:00 AM -23.3073 160.0313 56° Northeast  Level FlightAware Approximate
Sun 09:14:00 AM -23.2334 160.1483 56° Northeast  Level FlightAware Approximate
Sun 09:15:00 AM -23.1594 160.2652 55° Northeast  Level FlightAware Approximate
Sun 09:16:00 AM -23.0853 160.3820 55° Northeast  Level FlightAware Approximate
Sun 09:17:00 AM -23.0111 160.4986 55° Northeast  Level FlightAware Approximate
Sun 09:18:00 AM -22.9369 160.6151 55° Northeast  Level FlightAware Approximate
Sun 09:18:38 AM -22.7987 160.8312 235° Southwest 37,000  Level Aus ATC (Calculated)
Sun 09:19:00 AM -22.8625 160.7315 55° Northeast  Level FlightAware Approximate
Sun 09:20:00 AM -22.6969 160.9899 55° Northeast  Level FlightAware Approximate
Sun 09:21:00 AM -22.6223 161.1058 55° Northeast  Level FlightAware Approximate
Sun 09:21:00 AM -22.5791 161.1729 55° Northeast 37,000  Level Aus ATC (Calculated)
Sun 09:22:00 AM -22.5043 161.2887 55° Northeast  Level FlightAware Approximate
Sun 09:23:00 AM -22.4295 161.4043 55° Northeast  Level FlightAware Approximate
Sun 09:24:00 AM -22.3546 161.5199 55° Northeast  Level FlightAware Approximate
Sun 09:25:00 AM -22.2796 161.6353 55° Northeast  Level FlightAware Approximate
Sun 09:26:00 AM -22.2045 161.7505 55° Northeast  Level FlightAware Approximate
Sun 09:27:00 AM -22.1294 161.8657 55° Northeast  Level FlightAware Approximate
Sun 09:28:00 AM -22.0541 161.9807 55° Northeast  Level FlightAware Approximate
Sun 09:29:00 AM -21.9788 162.0956 55° Northeast  Level FlightAware Approximate
Sun 09:30:00 AM -21.9034 162.2104 55° Northeast  Level FlightAware Approximate
Sun 09:31:00 AM -21.8280 162.3250 55° Northeast  Level FlightAware Approximate
Sun 09:31:00 AM -21.7196 162.4892 235° Southwest 37,000  Level Aus ATC (Calculated)
Sun 09:32:00 AM -21.7524 162.4396 55° Northeast  Level FlightAware Approximate
Sun 09:33:00 AM -21.5682 162.7178 55° Northeast  Level FlightAware Approximate
Sun 09:34:00 AM -21.4924 162.8320 54° Northeast  Level FlightAware Approximate
Sun 09:35:00 AM -21.4165 162.9460 54° Northeast  Level FlightAware Approximate
Sun 09:36:00 AM -21.3405 163.0598 54° Northeast  Level FlightAware Approximate
Sun 09:37:00 AM -21.4165 162.9460 234° Southwest  Level FlightAware Approximate
Sun 09:38:00 AM -21.3244 163.0826 54° Northeast  Level FlightAware Approximate
Sun 09:39:00 AM -21.2476 163.1957 54° Northeast  Level FlightAware Approximate
Sun 09:40:00 AM -21.1706 163.3087 54° Northeast  Level FlightAware Approximate
Sun 09:41:00 AM -21.0936 163.4216 54° Northeast  Level FlightAware Approximate
Sun 09:42:00 AM -21.0165 163.5344 54° Northeast  Level FlightAware Approximate
Sun 09:43:00 AM -20.9393 163.6470 54° Northeast  Level FlightAware Approximate
Sun 09:44:00 AM -20.8621 163.7596 54° Northeast  Level FlightAware Approximate
Sun 09:45:00 AM -20.7848 163.8720 54° Northeast  Level FlightAware Approximate
Sun 09:46:00 AM -20.7074 163.9843 54° Northeast  Level FlightAware Approximate
Sun 09:47:00 AM -20.6299 164.0965 54° Northeast  Level FlightAware Approximate
Sun 09:48:00 AM -20.5524 164.2086 54° Northeast  Level FlightAware Approximate
Sun 09:49:00 AM -20.4748 164.3205 54° Northeast  Level FlightAware Approximate
Sun 09:50:00 AM -20.3971 164.4324 53° Northeast  Level FlightAware Approximate
Sun 09:51:00 AM -20.3193 164.5441 53° Northeast  Level FlightAware Approximate
Sun 09:52:00 AM -20.2415 164.6557 53° Northeast  Level FlightAware Approximate
Sun 09:53:00 AM -20.1636 164.7672 53° Northeast  Level FlightAware Approximate
Sun 09:54:00 AM -20.0856 164.8786 53° Northeast  Level FlightAware Approximate
Sun 09:55:00 AM -20.0076 164.9899 53° Northeast  Level FlightAware Approximate
Sun 09:56:00 AM -19.9295 165.1011 53° Northeast  Level FlightAware Approximate
Sun 09:57:00 AM -19.8513 165.2122 53° Northeast  Level FlightAware Approximate
Sun 09:58:00 AM -19.7731 165.3232 53° Northeast  Level FlightAware Approximate
Sun 09:59:00 AM -19.6947 165.4340 53° Northeast  Level FlightAware Approximate
Sun 10:00:00 AM -19.6164 165.5448 53° Northeast  Level FlightAware Approximate
Sun 10:01:00 AM -19.5379 165.6554 53° Northeast  Level FlightAware Approximate
Sun 10:02:00 AM -19.4594 165.7659 53° Northeast  Level FlightAware Approximate
Sun 10:03:00 AM -19.3808 165.8763 53° Northeast  Level FlightAware Approximate
Sun 10:04:00 AM -19.3022 165.9867 53° Northeast  Level FlightAware Approximate
Sun 10:05:00 AM -19.2235 166.0969 53° Northeast  Level FlightAware Approximate
Sun 10:06:00 AM -19.1447 166.2070 53° Northeast  Level FlightAware Approximate
Sun 10:07:00 AM -19.0658 166.3170 53° Northeast  Level FlightAware Approximate
Sun 10:08:00 AM -18.9869 166.4269 53° Northeast  Level FlightAware Approximate
Sun 10:09:00 AM -18.9080 166.5367 53° Northeast  Level FlightAware Approximate
Sun 10:10:00 AM -18.8289 166.6463 53° Northeast  Level FlightAware Approximate
Sun 10:11:00 AM -18.7498 166.7559 53° Northeast  Level FlightAware Approximate
Sun 10:12:00 AM -18.6707 166.8654 53° Northeast  Level FlightAware Approximate
Sun 10:13:00 AM -18.5914 166.9748 53° Northeast  Level FlightAware Approximate
Sun 10:14:00 AM -18.5121 167.0840 53° Northeast  Level FlightAware Approximate
Sun 10:15:00 AM -18.4328 167.1932 53° Northeast  Level FlightAware Approximate
Sun 10:16:00 AM -18.3533 167.3023 53° Northeast  Level FlightAware Approximate
Sun 10:17:00 AM -18.2739 167.4113 52° Northeast  Level FlightAware Approximate
Sun 10:18:00 AM -18.1943 167.5202 52° Northeast  Level FlightAware Approximate
Sun 10:19:00 AM -18.1147 167.6289 52° Northeast  Level FlightAware Approximate
Sun 10:20:00 AM -18.0351 167.7376 52° Northeast  Level FlightAware Approximate
Sun 10:21:00 AM -17.9553 167.8462 52° Northeast  Level FlightAware Approximate
Sun 10:22:00 AM -17.8755 167.9547 52° Northeast  Level FlightAware Approximate
Sun 10:23:00 AM -17.7957 168.0630 52° Northeast  Level FlightAware Approximate
Sun 10:24:00 AM -17.7158 168.1713 52° Northeast  Level FlightAware Approximate
Sun 10:25:00 AM -17.7007 168.3073 117° Southeast  Level Estimated
Sun 10:26:00 AM -17.6991 168.3198 117° Southeast  Level FlightAware Approximate
Sun 10:27:00 AM -17.6993 168.3198 117° Southeast  Level Estimated
Sun 10:28:00 AM -17.6993 168.3198 117° Southeast  Level Estimated
Sun 10:29:00 AM -17.6993 168.3198 117° Southeast  Level Estimated
Sun 10:30:00 AM -17.6993 168.3198 117° Southeast  Level Estimated
Sun 10:31:00 AM -17.6993 168.3198 117° Southeast  Level Estimated
Sun 10:32:00 AM -17.6993 168.3198 117° Southeast  Level Estimated
Sun 10:33:00 AM -17.6993 168.3198 117° Southeast  Level Estimated
Sun 10:34:00 AM -17.6993 168.3198 117° Southeast  Level Estimated
Sun 10:35:00 AM -17.6993 168.3198 117° Southeast  Level Estimated
Sun 10:36:00 AM -17.6993 168.3198 117° Southeast  Level Estimated
Sun 10:37:00 AM -17.6993 168.3198 117° Southeast  Level Estimated
Sun 10:38:00 AM -17.6993 168.3198 117° Southeast  Level Estimated
Sun 10:39:00 AM -17.6993 168.3198 117° Southeast  Level Estimated
Sun 10:40:00 AM -17.6993 168.3198 117° Southeast  Level Estimated

Login

Don't have an account? Register now (free) for customized features, flight alerts, and more!